Flight Track Log - Related Links

Times and Time Zones

All times are in EDT time to prevent confusion due to time zone crossing. See the N589H flight status page for this flight to view local times or setup timezone preferences in your user account.

Time Position Orientation Groundspeed Altitude Reporting Facility
EDT Latitude Longitude Course Direction KTS MPH feet Rate Location/Type
Sat 02:46:37 PM 41.6767 -70.3542 242° Southwest 148 170 2,500  Level Boston Center
Sat 02:47:38 PM 41.6631 -70.4197 254° West 170 196 4,900 2,410 Climbing Boston Center
Sat 02:48:39 PM 41.6489 -70.4833 253° West 177 204 7,400 2,410 Climbing Boston Center
Sat 02:49:40 PM 41.6328 -70.5467 251° West 179 206 9,800 2,244 Climbing Boston Center
Sat 02:50:42 PM 41.6197 -70.6047 253° West 166 191 12,000 2,000 Climbing Boston Center
Sat 02:51:00 PM 41.5050 -70.7126 242° Southwest  Level FlightAware Approximate
Sat 02:51:43 PM 41.6036 -70.6617 249° West 165 190 13,900  Level Boston Center
Sat 02:52:44 PM 41.5675 -70.7192 230° Southwest 171 197 16,000 1,770 Climbing Boston Center
Sat 02:53:45 PM 41.5403 -70.7703 235° Southwest 168 193 17,500 1,328 Climbing Boston Center
Sat 02:54:46 PM 41.5100 -70.8281 235° Southwest 179 206 18,700 1,279 Climbing Boston Center
Sat 02:55:47 PM 41.4794 -70.8808 232° Southwest 185 213 20,100 1,377 Climbing Boston Center
Sat 02:56:48 PM 41.4453 -70.9400 232° Southwest 197 227 21,500 1,415 Climbing Boston Center
Sat 02:57:50 PM 41.4117 -70.9994 233° Southwest 200 230 23,000 1,415 Climbing Boston Center
Sat 02:58:51 PM 41.3772 -71.0611 233° Southwest 205 236 24,400 1,377 Climbing Boston Center
Sat 02:59:52 PM 41.3425 -71.1236 234° Southwest 209 241 25,800 787 Climbing Boston Center
Sat 03:00:53 PM 41.3050 -71.1900 233° Southwest 225 259 26,000 98 Climbing Boston Center
Sat 03:01:54 PM 41.2606 -71.2664 232° Southwest 257 296 26,000 293 Level Boston Center
Sat 03:02:56 PM 41.2119 -71.3469 231° Southwest 277 319 26,600 829 Climbing Boston Center
Sat 03:03:57 PM 41.1556 -71.4369 230° Southwest 267 307 27,700 689 Climbing Boston Center
Sat 03:04:58 PM 41.1069 -71.5097 228° Southwest 263 303 28,000 148 Climbing Boston Center
Sat 03:05:59 PM 41.0592 -71.5881 231° Southwest 274 315 28,000  Level Boston Center
Sat 03:07:00 PM 41.0069 -71.6686 229° Southwest 285 328 28,000  Level Boston Center
Sat 03:08:02 PM 40.9519 -71.7531 229° Southwest 293 337 28,000  Level Boston Center
Sat 03:09:03 PM 40.8978 -71.8369 230° Southwest 296 341 28,000  Level Boston Center
Sat 03:10:04 PM 40.8403 -71.9247 229° Southwest 298 343 28,000  Level Boston Center
Sat 03:11:05 PM 40.7864 -72.0089 230° Southwest 299 344 28,000  Level Boston Center
Sat 03:12:06 PM 40.7322 -72.0908 229° Southwest 302 348 28,000  Level Boston Center
Sat 03:13:07 PM 40.6769 -72.1772 230° Southwest 308 354 28,000  Level Boston Center
Sat 03:14:09 PM 40.6228 -72.2594 229° Southwest 303 349 28,000  Level Boston Center
Sat 03:15:10 PM 40.5686 -72.3433 230° Southwest 302 348 28,000  Level Boston Center
Sat 03:16:11 PM 40.5031 -72.4428 229° Southwest 302 348 28,000  Level Boston Center
Sat 03:17:12 PM 40.4489 -72.5258 229° Southwest 301 346 28,000  Level Boston Center
Sat 03:18:13 PM 40.3947 -72.6094 230° Southwest 301 346 28,000  Level Boston Center
Sat 03:19:14 PM 40.3397 -72.6925 229° Southwest 301 346 28,000  Level Boston Center
Sat 03:20:15 PM 40.2839 -72.7747 228° Southwest 301 346 28,000  Level Boston Center
Sat 03:21:16 PM 40.2289 -72.8583 229° Southwest 302 348 28,000  Level Boston Center
Sat 03:22:18 PM 40.1731 -72.9417 229° Southwest 303 349 28,000  Level Boston Center
Sat 03:23:19 PM 40.1175 -73.0242 229° Southwest 303 349 28,000  Level Boston Center
Sat 03:24:20 PM 40.0608 -73.1092 229° Southwest 305 351 28,000  Level Boston Center
Sat 03:25:21 PM 40.0056 -73.1914 229° Southwest 305 351 28,000  Level Boston Center
Sat 03:26:22 PM 39.9497 -73.2750 229° Southwest 305 351 28,000  Level Boston Center
Sat 03:27:23 PM 39.8819 -73.3747 228° Southwest 306 352 28,000  Level Boston Center
Sat 03:29:05 PM 39.7869 -73.5122 228° Southwest 317 365 28,000  Level Washington Center
Sat 03:30:03 PM 39.7303 -73.5978 229° Southwest 317 365 28,000  Level Washington Center
Sat 03:31:04 PM 39.6733 -73.6800 228° Southwest 317 365 28,000  Level Washington Center
Sat 03:32:04 PM 39.6161 -73.7650 229° Southwest 317 365 28,000  Level Washington Center
Sat 03:33:05 PM 39.5611 -73.8472 229° Southwest 317 365 28,000  Level Washington Center
Sat 03:34:03 PM 39.4997 -73.9322 227° Southwest 317 365 28,000  Level Washington Center
Sat 03:35:03 PM 39.4425 -74.0142 228° Southwest 317 365 28,000  Level Washington Center
Sat 03:36:04 PM 39.3853 -74.1014 230° Southwest 317 365 28,000  Level Washington Center
Sat 03:37:05 PM 39.3258 -74.1856 228° Southwest 317 365 28,000  Level Washington Center
Sat 03:38:04 PM 39.2664 -74.2725 229° Southwest 317 365 28,000  Level Washington Center
Sat 03:39:04 PM 39.2092 -74.3567 229° Southwest 317 365 28,000  Level Washington Center
Sat 03:40:04 PM 39.1494 -74.4433 228° Southwest 317 365 28,000 -252 Level Washington Center
Sat 03:41:03 PM 39.0878 -74.5247 226° Southwest 317 365 27,500 -756 Descending Washington Center
Sat 03:42:03 PM 39.0281 -74.6136 229° Southwest 317 365 26,500 -744 Descending Washington Center
Sat 03:43:04 PM 38.9661 -74.7000 227° Southwest 322 371 26,000 -246 Descending Washington Center
Sat 03:44:05 PM 38.9083 -74.7833 228° Southwest 317 365 26,000  Level Washington Center
Sat 03:45:05 PM 38.8486 -74.8667 227° Southwest 317 365 26,000  Level Washington Center
Sat 03:46:04 PM 38.7906 -74.9525 229° Southwest 317 365 26,000  Level Washington Center
Sat 03:47:05 PM 38.7286 -75.0356 226° Southwest 317 365 26,000  Level Washington Center
Sat 03:48:05 PM 38.6683 -75.1183 227° Southwest 317 365 26,000  Level Washington Center
Sat 03:49:03 PM 38.6103 -75.1986 227° Southwest 317 365 26,000  Level Washington Center
Sat 03:50:04 PM 38.5522 -75.2811 228° Southwest 317 365 26,000  Level Washington Center
Sat 03:51:05 PM 38.4919 -75.3636 227° Southwest 317 365 26,000  Level Washington Center
Sat 03:52:03 PM 38.4336 -75.4486 229° Southwest 317 365 26,000  Level Washington Center
Sat 03:53:04 PM 38.3711 -75.5281 225° Southwest 317 365 26,000  Level Washington Center
Sat 03:54:05 PM 38.3150 -75.6156 231° Southwest 317 365 26,000  Level Washington Center
Sat 03:55:05 PM 38.2481 -75.6947 223° Southwest 323 372 26,000  Level Washington Center
Sat 03:56:03 PM 38.1875 -75.7767 227° Southwest 323 372 26,000  Level Washington Center
Sat 03:57:04 PM 38.1292 -75.8611 229° Southwest 323 372 26,000  Level Washington Center
Sat 03:58:03 PM 38.0664 -75.9425 226° Southwest 323 372 26,000  Level Washington Center
Sat 03:59:03 PM 38.0033 -76.0292 227° Southwest 323 372 26,000  Level Washington Center
Sat 04:00:04 PM 37.9428 -76.1106 227° Southwest 323 372 26,000  Level Washington Center
Sat 04:01:04 PM 37.8817 -76.1942 227° Southwest 323 372 26,000  Level Washington Center
Sat 04:02:04 PM 37.8189 -76.2806 227° Southwest 323 372 26,000  Level Washington Center
Sat 04:03:05 PM 37.7556 -76.3639 226° Southwest 323 372 26,000  Level Washington Center
Sat 04:04:05 PM 37.6947 -76.4472 227° Southwest 323 372 26,000  Level Washington Center
Sat 04:05:03 PM 37.6314 -76.5306 226° Southwest 323 372 26,000  Level Washington Center
Sat 04:06:05 PM 37.5683 -76.6136 226° Southwest 323 372 26,000  Level Washington Center
Sat 04:07:03 PM 37.5050 -76.6967 226° Southwest 323 372 26,000  Level Washington Center
Sat 04:08:04 PM 37.4417 -76.7794 226° Southwest 328 377 26,000  Level Washington Center
Sat 04:09:05 PM 37.3758 -76.8672 227° Southwest 343 395 26,000  Level Washington Center
Sat 04:10:05 PM 37.3189 -76.9447 227° Southwest 343 395 26,000  Level Washington Center
Sat 04:11:04 PM 37.2467 -77.0397 226° Southwest 343 395 26,000  Level Washington Center
Sat 04:12:04 PM 37.1853 -77.1222 227° Southwest 343 395 26,000  Level Washington Center
Sat 04:13:05 PM 37.1194 -77.2067 226° Southwest 343 395 26,000  Level Washington Center
Sat 04:14:03 PM 37.0558 -77.2914 227° Southwest 343 395 26,000  Level Washington Center
Sat 04:15:04 PM 36.9897 -77.3756 225° Southwest 343 395 26,000  Level Washington Center
Sat 04:16:05 PM 36.9261 -77.4600 227° Southwest 343 395 26,000  Level Washington Center
Sat 04:17:05 PM 36.8600 -77.5467 226° Southwest 343 395 26,000  Level Washington Center
Sat 04:18:03 PM 36.7917 -77.6306 225° Southwest 343 395 26,000  Level Washington Center
Sat 04:19:03 PM 36.7278 -77.7144 226° Southwest 343 395 26,000  Level Washington Center
Sat 04:20:04 PM 36.6636 -77.8006 227° Southwest 343 395 26,000  Level Washington Center
Sat 04:21:04 PM 36.5972 -77.8842 225° Southwest 343 395 26,000  Level Washington Center
Sat 04:22:05 PM 36.5331 -77.9675 226° Southwest 343 395 26,000  Level Washington Center
Sat 04:23:02 PM 36.4667 -78.0508 225° Southwest 343 395 26,000  Level Washington Center
Sat 04:24:03 PM 36.4089 -78.1264 226° Southwest 343 395 26,000  Level Washington Center
Sat 04:25:05 PM 36.3422 -78.2119 226° Southwest 343 395 26,000  Level Washington Center
Sat 04:26:05 PM 36.2781 -78.2922 225° Southwest 343 395 26,000  Level Washington Center
Sat 04:27:03 PM 36.2136 -78.3725 225° Southwest 343 395 26,000  Level Washington Center
Sat 04:28:03 PM 36.1492 -78.4525 225° Southwest 343 395 26,000  Level Washington Center
Sat 04:29:04 PM 36.0886 -78.5325 227° Southwest 338 389 26,000  Level Washington Center
Sat 04:30:04 PM 36.0261 -78.6122 226° Southwest 338 389 26,000  Level Washington Center
Sat 04:31:05 PM 35.9594 -78.6919 224° Southwest 338 389 26,000  Level Washington Center
Sat 04:32:04 PM 35.8969 -78.7689 225° Southwest 338 389 26,000  Level Washington Center
Sat 04:33:04 PM 35.8364 -78.8483 227° Southwest 338 389 26,000  Level Washington Center
Sat 04:34:05 PM 35.7736 -78.9278 226° Southwest 333 383 26,000  Level Washington Center
Sat 04:35:03 PM 35.7089 -79.0044 224° Southwest 327 376 26,000  Level Washington Center
Sat 04:36:03 PM 35.6439 -79.0833 225° Southwest 327 376 26,000  Level Washington Center
Sat 04:37:03 PM 35.5747 -79.1697 225° Southwest 327 376 26,000 49 Level Washington Center
Sat 04:38:05 PM 35.5117 -79.2486 226° Southwest 322 371 26,100 -250 Climbing Washington Center
Sat 04:39:03 PM 35.4514 -79.3172 223° Southwest 322 371 25,500 -807 Descending Washington Center
Sat 04:40:04 PM 35.3883 -79.3933 225° Southwest 333 383 24,500 -787 Descending Washington Center
Sat 04:41:05 PM 35.3058 -79.4961 225° Southwest 352 405 23,900 -744 Descending Washington Center
Sat 04:42:05 PM 35.2361 -79.5819 225° Southwest 352 405 23,000 -915 Descending Washington Center
Sat 04:43:03 PM 35.1622 -79.6672 223° Southwest 357 411 22,100 -288 Descending Washington Center
Sat 04:45:33 PM 35.0017 -79.8669 226° Southwest 350 403 22,000 -29 Descending Jacksonville Center
Sat 04:46:33 PM 34.9283 -79.9403 219° Southwest 344 396 22,000  Level Jacksonville Center
Sat 04:47:33 PM 34.8369 -79.9586 189° South 323 372 22,000  Level Jacksonville Center
Sat 04:48:33 PM 34.7589 -80.0119 209° Southwest 328 377 22,000 -100 Level Jacksonville Center
Sat 04:49:33 PM 34.7006 -80.0972 230° Southwest 328 377 21,800 -1,300 Descending Jacksonville Center
Sat 04:50:33 PM 34.6256 -80.1981 228° Southwest 353 406 19,400 -2,150 Descending Jacksonville Center
Sat 04:51:33 PM 34.5625 -80.2856 229° Southwest 359 413 17,500 -1,950 Descending Jacksonville Center
Sat 04:52:33 PM 34.5017 -80.3681 228° Southwest 346 398 15,500 -2,000 Descending Jacksonville Center
Sat 04:53:33 PM 34.4408 -80.4481 227° Southwest 335 386 13,500 -2,000 Descending Jacksonville Center
Sat 04:54:33 PM 34.3836 -80.5225 227° Southwest 324 373 11,500 -1,300 Descending Jacksonville Center
Sat 04:55:33 PM 34.3289 -80.5969 228° Southwest 313 360 10,900 -300 Descending Jacksonville Center
Sat 04:56:33 PM 34.2758 -80.6711 229° Southwest 302 348 10,900 -550 Level Jacksonville Center
Sat 04:57:33 PM 34.2103 -80.7356 219° Southwest 302 348 9,800 -1,550 Descending Jacksonville Center
Sat 04:58:33 PM 34.1467 -80.7950 218° Southwest 302 348 7,800 -2,000 Descending Jacksonville Center
Sat 04:59:33 PM 34.0911 -80.8514 220° Southwest 290 334 5,800 -1,450 Descending Jacksonville Center
Sat 05:00:33 PM 34.0314 -80.9031 216° Southwest 285 328 4,900 -450 Descending Jacksonville Center
Sat 05:01:33 PM 33.9719 -80.9619 219° Southwest 278 320 4,900 -50 Level Jacksonville Center
Sat 05:02:33 PM 33.9103 -81.0208 218° Southwest 278 320 4,800 -600 Descending Jacksonville Center
Sat 05:03:33 PM 33.8567 -81.0794 222° Southwest 273 314 3,700 -950 Descending Jacksonville Center
Sat 05:04:33 PM 33.8117 -81.1403 228° Southwest 261 300 2,900 -800 Descending Jacksonville Center
Sat 05:06:00 PM 33.9320 -81.1169 North  Level FlightAware Approximate
Sat 05:13:00 PM 33.9333 -81.1167 North  Level FlightAware Approximate
Sat 05:14:00 PM 33.9388 -81.1195 186° South  Level Estimated
Sat 05:15:00 PM 33.9388 -81.1195 185° South  Level Estimated
Sat 05:16:00 PM 33.9388 -81.1195 North  Level Estimated
Sat 05:17:00 PM 33.9333 -81.1167 North  Level FlightAware Approximate
Sat 05:18:00 PM 33.9388 -81.1195 186° South  Level Estimated
Sat 05:19:00 PM 33.9388 -81.1195 185° South  Level Estimated

Login

Don't have an account? Register now (free) for customized features, flight alerts, and more!